Overview Statistics Trail Chart Weather Telemetry Raw packets
 

This is the latest recevied weather packets stored in our database for station/object IZ5ILU-16. If no packets are shown the sender has not sent any weather packets the latest 10 day(s).

<< 51 52 53 54 55 56 57 >>
Time Temp. Humidity Pressure Rain* Wind** Luminosity Snow
1787860541 27.78° C 70% 1016.2 hPa 0 mm - - -
1787859941 28.33° C 70% 1016.2 hPa 0 mm - - -
1787859341 28.33° C 70% 1016.3 hPa 0 mm - - -
1787858741 28.33° C 70% 1016.3 hPa 0 mm - - -
1787858141 28.33° C 69% 1016.1 hPa 0 mm - - -
1787857541 28.33° C 71% 1016 hPa 0 mm - - -
1787856941 28.33° C 71% 1016 hPa 0 mm - - -
1787856341 28.89° C 70% 1015.9 hPa 0 mm - - -
1787855740 28.89° C 70% 1015.8 hPa 0 mm - - -
1787855141 28.89° C 70% 1015.8 hPa 0 mm - - -
1787854541 29.44° C 70% 1015.7 hPa 0 mm - - -
1787853941 29.44° C 70% 1015.7 hPa 0 mm - - -
1787853341 30° C 66% 1015.6 hPa 0 mm - - -
1787852741 30° C 65% 1015.4 hPa 0 mm - - -
1787852141 30° C 64% 1015 hPa 0 mm - - -
1787851541 30.56° C 63% 1015.1 hPa 0 mm - - -
1787850941 30.56° C 61% 1015.3 hPa 0 mm - - -
1787850341 30° C 60% 1015.5 hPa 0 mm - - -
1787849741 30.56° C 58% 1015.7 hPa 0 mm - - -
1787849141 30.56° C 59% 1015.9 hPa 0 mm - - -
1787848541 31.67° C 55% 1015.9 hPa 0 mm - - -
1787847941 32.22° C 51% 1016 hPa 0 mm - - -
1787847341 32.22° C 50% 1016.1 hPa 0 mm - - -
1787846741 32.22° C 51% 1016.3 hPa 0 mm - - -
1787846141 32.22° C 51% 1016.1 hPa 0 mm - - -

* Rain latest hour (hover to see other rain measurements)
** Current wind speed in m/s (hover to see current wind gust speed)